KBBP

Marlboro County Jetport - H E Avent Field Airport

Bennettsville, South Carolina, USA
METAR KBBP 182015Z AUTO 20003KT 10SM OVC011 09/07 A3011 RMK AO2
Observed Flight Rules
Jan-18 @ 20:15 UTC (23 minutes ago) Marginal Visual Flight Rules
Wind Visibility Clouds
200° at 3 knots 10 miles
  • Overcast at 1,100' AGL
Temperatures Readings
Current 9°C / 48°F
Dewpoint 7°C / 45°F
Humidity 87%
Altimeter 30.11" Hg
Pressure 1019.62 hPa
Elevation 45
METAR KBBP 182015Z AUTO 20003KT 10SM OVC011 09/07 A3011 RMK AO2
Observed Flight Rules
Jan-18 @ 20:15 UTC
(23 minutes ago)
MVFR
Wind Visibility
200° at 3 knots 10 miles
Clouds
  • Overcast at 1,100' AGL
Temperature Dewpoint
9°C / 48°F 7°C / 45°F
Humidity Altimeter Pressure
87% 30.11" Hg 1019.62 hPa